sensor_id;sensor_type;location;lat;lon;timestamp;P1;durP1;ratioP1;P2;durP2;ratioP2
297;SDS011;133;49.626;9.680;2023-04-03T00:01:27;2.93;;;2.80;;
297;SDS011;133;49.626;9.680;2023-04-03T00:03:53;4.47;;;3.13;;
297;SDS011;133;49.626;9.680;2023-04-03T00:06:20;2.97;;;2.77;;
297;SDS011;133;49.626;9.680;2023-04-03T00:08:46;3.00;;;2.80;;
297;SDS011;133;49.626;9.680;2023-04-03T00:11:11;5.23;;;3.17;;
297;SDS011;133;49.626;9.680;2023-04-03T00:13:38;3.73;;;3.10;;
297;SDS011;133;49.626;9.680;2023-04-03T00:16:04;2.63;;;2.43;;
297;SDS011;133;49.626;9.680;2023-04-03T00:18:31;5.13;;;2.87;;
297;SDS011;133;49.626;9.680;2023-04-03T00:20:57;3.17;;;2.97;;
297;SDS011;133;49.626;9.680;2023-04-03T00:23:22;3.33;;;3.13;;
297;SDS011;133;49.626;9.680;2023-04-03T00:25:48;5.10;;;3.40;;
297;SDS011;133;49.626;9.680;2023-04-03T00:28:14;3.70;;;2.90;;
297;SDS011;133;49.626;9.680;2023-04-03T00:30:40;3.40;;;2.90;;
297;SDS011;133;49.626;9.680;2023-04-03T00:33:06;3.73;;;3.27;;
297;SDS011;133;49.626;9.680;2023-04-03T00:35:33;3.37;;;3.17;;
297;SDS011;133;49.626;9.680;2023-04-03T00:38:00;3.33;;;2.80;;
297;SDS011;133;49.626;9.680;2023-04-03T00:40:26;3.37;;;3.17;;
297;SDS011;133;49.626;9.680;2023-04-03T00:42:55;3.40;;;3.20;;
297;SDS011;133;49.626;9.680;2023-04-03T00:45:29;3.23;;;3.03;;
297;SDS011;133;49.626;9.680;2023-04-03T00:47:57;4.60;;;2.90;;
297;SDS011;133;49.626;9.680;2023-04-03T00:50:27;14.27;;;3.13;;
297;SDS011;133;49.626;9.680;2023-04-03T00:52:54;4.10;;;3.40;;
297;SDS011;133;49.626;9.680;2023-04-03T00:55:21;4.77;;;4.47;;
297;SDS011;133;49.626;9.680;2023-04-03T00:57:47;3.63;;;3.47;;
297;SDS011;133;49.626;9.680;2023-04-03T01:00:14;3.70;;;3.30;;
297;SDS011;133;49.626;9.680;2023-04-03T01:02:43;3.10;;;2.90;;
297;SDS011;133;49.626;9.680;2023-04-03T01:05:09;5.00;;;3.00;;
297;SDS011;133;49.626;9.680;2023-04-03T01:07:36;3.13;;;2.93;;
297;SDS011;133;49.626;9.680;2023-04-03T01:10:09;2.83;;;2.63;;
297;SDS011;133;49.626;9.680;2023-04-03T01:12:39;3.13;;;2.93;;
297;SDS011;133;49.626;9.680;2023-04-03T01:15:07;3.13;;;2.93;;
297;SDS011;133;49.626;9.680;2023-04-03T01:17:43;3.47;;;3.27;;
297;SDS011;133;49.626;9.680;2023-04-03T01:22:57;3.60;;;3.10;;
297;SDS011;133;49.626;9.680;2023-04-03T01:25:25;2.63;;;2.50;;
297;SDS011;133;49.626;9.680;2023-04-03T01:27:51;4.63;;;3.00;;
297;SDS011;133;49.626;9.680;2023-04-03T01:30:17;3.60;;;2.93;;
297;SDS011;133;49.626;9.680;2023-04-03T01:32:45;3.17;;;3.00;;
297;SDS011;133;49.626;9.680;2023-04-03T01:35:11;5.40;;;3.60;;
297;SDS011;133;49.626;9.680;2023-04-03T01:37:37;4.10;;;3.63;;
297;SDS011;133;49.626;9.680;2023-04-03T01:40:03;3.50;;;3.30;;
297;SDS011;133;49.626;9.680;2023-04-03T01:42:29;3.13;;;2.93;;
297;SDS011;133;49.626;9.680;2023-04-03T01:44:55;4.77;;;3.40;;
297;SDS011;133;49.626;9.680;2023-04-03T01:47:21;3.93;;;3.00;;
297;SDS011;133;49.626;9.680;2023-04-03T01:49:47;3.33;;;3.13;;
297;SDS011;133;49.626;9.680;2023-04-03T01:52:12;2.87;;;2.67;;
297;SDS011;133;49.626;9.680;2023-04-03T01:54:38;6.23;;;2.70;;
297;SDS011;133;49.626;9.680;2023-04-03T01:57:04;6.90;;;3.00;;
297;SDS011;133;49.626;9.680;2023-04-03T01:59:30;2.90;;;2.70;;
297;SDS011;133;49.626;9.680;2023-04-03T02:01:55;3.30;;;3.10;;
297;SDS011;133;49.626;9.680;2023-04-03T02:04:21;4.50;;;3.13;;
297;SDS011;133;49.626;9.680;2023-04-03T02:06:47;3.47;;;3.07;;
297;SDS011;133;49.626;9.680;2023-04-03T02:09:13;6.27;;;3.50;;
297;SDS011;133;49.626;9.680;2023-04-03T02:11:38;3.77;;;3.57;;
297;SDS011;133;49.626;9.680;2023-04-03T02:14:04;3.63;;;3.33;;
297;SDS011;133;49.626;9.680;2023-04-03T02:16:30;3.63;;;3.37;;
297;SDS011;133;49.626;9.680;2023-04-03T02:18:56;7.43;;;3.73;;
297;SDS011;133;49.626;9.680;2023-04-03T02:21:22;5.23;;;3.43;;
297;SDS011;133;49.626;9.680;2023-04-03T02:23:47;4.23;;;3.40;;
297;SDS011;133;49.626;9.680;2023-04-03T02:26:14;3.83;;;3.10;;
297;SDS011;133;49.626;9.680;2023-04-03T02:28:40;3.60;;;3.37;;
297;SDS011;133;49.626;9.680;2023-04-03T02:31:07;3.00;;;2.83;;
297;SDS011;133;49.626;9.680;2023-04-03T02:33:33;3.17;;;2.67;;
297;SDS011;133;49.626;9.680;2023-04-03T02:36:03;4.23;;;3.20;;
297;SDS011;133;49.626;9.680;2023-04-03T02:38:30;4.57;;;3.13;;
297;SDS011;133;49.626;9.680;2023-04-03T02:41:02;3.73;;;3.53;;
297;SDS011;133;49.626;9.680;2023-04-03T02:43:29;4.10;;;3.40;;
297;SDS011;133;49.626;9.680;2023-04-03T02:45:55;4.33;;;3.63;;
297;SDS011;133;49.626;9.680;2023-04-03T02:48:21;3.57;;;3.37;;
297;SDS011;133;49.626;9.680;2023-04-03T02:50:47;3.60;;;3.40;;
297;SDS011;133;49.626;9.680;2023-04-03T02:53:13;3.30;;;3.10;;
297;SDS011;133;49.626;9.680;2023-04-03T02:55:40;4.80;;;3.30;;
297;SDS011;133;49.626;9.680;2023-04-03T02:58:06;4.60;;;3.50;;
297;SDS011;133;49.626;9.680;2023-04-03T03:00:32;3.33;;;3.13;;
297;SDS011;133;49.626;9.680;2023-04-03T03:02:58;5.27;;;3.50;;
297;SDS011;133;49.626;9.680;2023-04-03T03:05:23;4.27;;;3.50;;
297;SDS011;133;49.626;9.680;2023-04-03T03:07:49;3.77;;;3.57;;
297;SDS011;133;49.626;9.680;2023-04-03T03:10:15;5.40;;;4.87;;
297;SDS011;133;49.626;9.680;2023-04-03T03:12:40;3.47;;;3.27;;
297;SDS011;133;49.626;9.680;2023-04-03T03:15:06;3.40;;;3.20;;
297;SDS011;133;49.626;9.680;2023-04-03T03:17:32;3.13;;;2.93;;
297;SDS011;133;49.626;9.680;2023-04-03T03:19:58;4.43;;;3.13;;
297;SDS011;133;49.626;9.680;2023-04-03T03:22:25;3.07;;;2.87;;
297;SDS011;133;49.626;9.680;2023-04-03T03:24:51;3.80;;;3.23;;
297;SDS011;133;49.626;9.680;2023-04-03T03:27:17;4.13;;;3.50;;
297;SDS011;133;49.626;9.680;2023-04-03T03:29:42;3.33;;;3.13;;
297;SDS011;133;49.626;9.680;2023-04-03T03:32:08;3.50;;;3.30;;
297;SDS011;133;49.626;9.680;2023-04-03T03:34:34;6.63;;;3.43;;
297;SDS011;133;49.626;9.680;2023-04-03T03:36:59;5.00;;;3.90;;
297;SDS011;133;49.626;9.680;2023-04-03T03:39:25;4.03;;;3.83;;
297;SDS011;133;49.626;9.680;2023-04-03T03:41:51;5.20;;;3.53;;
297;SDS011;133;49.626;9.680;2023-04-03T03:44:18;3.53;;;3.33;;
297;SDS011;133;49.626;9.680;2023-04-03T03:46:44;4.23;;;3.97;;
297;SDS011;133;49.626;9.680;2023-04-03T03:49:10;3.80;;;3.30;;
297;SDS011;133;49.626;9.680;2023-04-03T03:51:36;5.47;;;4.17;;
297;SDS011;133;49.626;9.680;2023-04-03T03:54:02;4.37;;;4.07;;
297;SDS011;133;49.626;9.680;2023-04-03T03:56:28;3.97;;;3.80;;
297;SDS011;133;49.626;9.680;2023-04-03T03:58:54;4.47;;;3.77;;
297;SDS011;133;49.626;9.680;2023-04-03T04:01:21;6.00;;;4.87;;
297;SDS011;133;49.626;9.680;2023-04-03T04:03:47;4.80;;;4.50;;
297;SDS011;133;49.626;9.680;2023-04-03T04:06:13;4.73;;;4.43;;
297;SDS011;133;49.626;9.680;2023-04-03T04:08:39;4.60;;;4.30;;
297;SDS011;133;49.626;9.680;2023-04-03T04:11:05;4.47;;;4.17;;
297;SDS011;133;49.626;9.680;2023-04-03T04:13:31;4.40;;;4.10;;
297;SDS011;133;49.626;9.680;2023-04-03T04:15:56;4.00;;;3.80;;
297;SDS011;133;49.626;9.680;2023-04-03T04:18:22;3.60;;;3.40;;
297;SDS011;133;49.626;9.680;2023-04-03T04:20:48;4.10;;;3.90;;
297;SDS011;133;49.626;9.680;2023-04-03T04:23:14;4.33;;;4.03;;
297;SDS011;133;49.626;9.680;2023-04-03T04:25:41;9.33;;;5.90;;
297;SDS011;133;49.626;9.680;2023-04-03T04:28:10;29.50;;;18.57;;
297;SDS011;133;49.626;9.680;2023-04-03T04:30:36;17.77;;;11.83;;
297;SDS011;133;49.626;9.680;2023-04-03T04:33:02;10.70;;;7.60;;
297;SDS011;133;49.626;9.680;2023-04-03T04:35:28;4.93;;;4.63;;
297;SDS011;133;49.626;9.680;2023-04-03T04:37:53;4.00;;;3.80;;
297;SDS011;133;49.626;9.680;2023-04-03T04:40:19;22.40;;;15.10;;
297;SDS011;133;49.626;9.680;2023-04-03T04:42:46;11.70;;;8.73;;
297;SDS011;133;49.626;9.680;2023-04-03T04:45:11;4.50;;;4.20;;
297;SDS011;133;49.626;9.680;2023-04-03T04:47:37;5.83;;;4.90;;
297;SDS011;133;49.626;9.680;2023-04-03T04:50:03;6.53;;;5.50;;
297;SDS011;133;49.626;9.680;2023-04-03T04:52:29;8.70;;;5.00;;
297;SDS011;133;49.626;9.680;2023-04-03T04:54:54;4.17;;;3.93;;
297;SDS011;133;49.626;9.680;2023-04-03T04:57:20;5.07;;;4.20;;
297;SDS011;133;49.626;9.680;2023-04-03T04:59:46;4.27;;;4.00;;
297;SDS011;133;49.626;9.680;2023-04-03T05:02:11;5.33;;;4.97;;
297;SDS011;133;49.626;9.680;2023-04-03T05:04:37;10.60;;;5.50;;
297;SDS011;133;49.626;9.680;2023-04-03T05:07:03;7.00;;;4.50;;
297;SDS011;133;49.626;9.680;2023-04-03T05:09:28;7.33;;;5.00;;
297;SDS011;133;49.626;9.680;2023-04-03T05:11:54;6.03;;;4.90;;
297;SDS011;133;49.626;9.680;2023-04-03T05:14:21;4.90;;;4.60;;
297;SDS011;133;49.626;9.680;2023-04-03T05:16:46;9.37;;;4.30;;
297;SDS011;133;49.626;9.680;2023-04-03T05:19:12;5.07;;;4.70;;
297;SDS011;133;49.626;9.680;2023-04-03T05:21:38;4.77;;;4.47;;
297;SDS011;133;49.626;9.680;2023-04-03T05:24:03;6.90;;;4.50;;
297;SDS011;133;49.626;9.680;2023-04-03T05:26:30;5.03;;;4.73;;
297;SDS011;133;49.626;9.680;2023-04-03T05:28:56;7.00;;;4.73;;
297;SDS011;133;49.626;9.680;2023-04-03T05:31:22;5.67;;;4.87;;
297;SDS011;133;49.626;9.680;2023-04-03T05:33:47;5.50;;;4.80;;
297;SDS011;133;49.626;9.680;2023-04-03T05:36:13;4.90;;;4.60;;
297;SDS011;133;49.626;9.680;2023-04-03T05:38:39;4.83;;;4.43;;
297;SDS011;133;49.626;9.680;2023-04-03T05:41:05;6.53;;;5.27;;
297;SDS011;133;49.626;9.680;2023-04-03T05:43:31;4.97;;;4.60;;
297;SDS011;133;49.626;9.680;2023-04-03T05:45:57;6.53;;;4.47;;
297;SDS011;133;49.626;9.680;2023-04-03T05:48:23;4.83;;;4.53;;
297;SDS011;133;49.626;9.680;2023-04-03T05:50:48;10.10;;;4.30;;
297;SDS011;133;49.626;9.680;2023-04-03T05:53:18;5.67;;;5.03;;
297;SDS011;133;49.626;9.680;2023-04-03T05:55:50;5.03;;;4.67;;
297;SDS011;133;49.626;9.680;2023-04-03T05:58:16;4.70;;;4.40;;
297;SDS011;133;49.626;9.680;2023-04-03T06:00:42;4.83;;;4.40;;
297;SDS011;133;49.626;9.680;2023-04-03T06:03:07;10.13;;;4.17;;
297;SDS011;133;49.626;9.680;2023-04-03T06:05:33;6.13;;;4.73;;
297;SDS011;133;49.626;9.680;2023-04-03T06:07:59;4.33;;;4.03;;
297;SDS011;133;49.626;9.680;2023-04-03T06:10:25;6.80;;;4.40;;
297;SDS011;133;49.626;9.680;2023-04-03T06:12:51;4.10;;;3.90;;
297;SDS011;133;49.626;9.680;2023-04-03T06:15:16;5.20;;;3.90;;
297;SDS011;133;49.626;9.680;2023-04-03T06:17:42;5.10;;;3.93;;
297;SDS011;133;49.626;9.680;2023-04-03T06:20:08;4.40;;;4.10;;
297;SDS011;133;49.626;9.680;2023-04-03T06:22:35;4.53;;;4.23;;
297;SDS011;133;49.626;9.680;2023-04-03T06:25:01;3.73;;;3.53;;
297;SDS011;133;49.626;9.680;2023-04-03T06:27:27;4.50;;;4.20;;
297;SDS011;133;49.626;9.680;2023-04-03T06:29:53;3.87;;;3.67;;
297;SDS011;133;49.626;9.680;2023-04-03T06:32:18;4.83;;;3.80;;
297;SDS011;133;49.626;9.680;2023-04-03T06:34:44;4.70;;;4.07;;
297;SDS011;133;49.626;9.680;2023-04-03T06:37:17;5.60;;;4.07;;
297;SDS011;133;49.626;9.680;2023-04-03T06:39:45;4.10;;;3.77;;
297;SDS011;133;49.626;9.680;2023-04-03T06:42:11;4.63;;;4.33;;
297;SDS011;133;49.626;9.680;2023-04-03T06:44:36;9.93;;;4.03;;
297;SDS011;133;49.626;9.680;2023-04-03T06:47:03;4.60;;;4.07;;
297;SDS011;133;49.626;9.680;2023-04-03T06:49:28;4.73;;;4.40;;
297;SDS011;133;49.626;9.680;2023-04-03T06:51:54;7.90;;;3.90;;
297;SDS011;133;49.626;9.680;2023-04-03T06:54:21;7.00;;;3.70;;
297;SDS011;133;49.626;9.680;2023-04-03T06:56:47;3.80;;;3.60;;
297;SDS011;133;49.626;9.680;2023-04-03T06:59:13;6.73;;;3.93;;
297;SDS011;133;49.626;9.680;2023-04-03T07:01:39;5.70;;;4.07;;
297;SDS011;133;49.626;9.680;2023-04-03T07:04:05;4.53;;;3.80;;
297;SDS011;133;49.626;9.680;2023-04-03T07:06:32;6.03;;;3.47;;
297;SDS011;133;49.626;9.680;2023-04-03T07:08:58;4.50;;;3.63;;
297;SDS011;133;49.626;9.680;2023-04-03T07:11:25;3.87;;;3.50;;
297;SDS011;133;49.626;9.680;2023-04-03T07:13:51;3.50;;;3.30;;
297;SDS011;133;49.626;9.680;2023-04-03T07:16:17;4.27;;;3.43;;
297;SDS011;133;49.626;9.680;2023-04-03T07:18:44;3.53;;;3.40;;
297;SDS011;133;49.626;9.680;2023-04-03T07:21:10;4.40;;;3.80;;
297;SDS011;133;49.626;9.680;2023-04-03T07:23:35;6.00;;;3.97;;
297;SDS011;133;49.626;9.680;2023-04-03T07:26:01;5.67;;;3.80;;
297;SDS011;133;49.626;9.680;2023-04-03T07:28:27;4.17;;;3.93;;
297;SDS011;133;49.626;9.680;2023-04-03T07:30:58;4.70;;;3.90;;
297;SDS011;133;49.626;9.680;2023-04-03T07:33:28;4.40;;;3.90;;
297;SDS011;133;49.626;9.680;2023-04-03T07:35:54;8.53;;;3.80;;
297;SDS011;133;49.626;9.680;2023-04-03T07:38:20;4.00;;;3.80;;
297;SDS011;133;49.626;9.680;2023-04-03T07:40:49;3.87;;;3.63;;
297;SDS011;133;49.626;9.680;2023-04-03T07:43:17;6.50;;;4.17;;
297;SDS011;133;49.626;9.680;2023-04-03T07:45:45;5.83;;;4.10;;
297;SDS011;133;49.626;9.680;2023-04-03T07:48:12;4.40;;;4.10;;
297;SDS011;133;49.626;9.680;2023-04-03T07:50:41;4.47;;;3.70;;
297;SDS011;133;49.626;9.680;2023-04-03T07:53:08;5.13;;;3.47;;
297;SDS011;133;49.626;9.680;2023-04-03T07:55:34;3.87;;;3.63;;
297;SDS011;133;49.626;9.680;2023-04-03T07:58:05;4.10;;;3.90;;
297;SDS011;133;49.626;9.680;2023-04-03T08:00:31;4.30;;;3.83;;
297;SDS011;133;49.626;9.680;2023-04-03T08:02:56;4.60;;;4.10;;
297;SDS011;133;49.626;9.680;2023-04-03T08:05:22;5.30;;;3.57;;
297;SDS011;133;49.626;9.680;2023-04-03T08:07:48;9.07;;;3.77;;
297;SDS011;133;49.626;9.680;2023-04-03T08:10:14;4.60;;;3.80;;
297;SDS011;133;49.626;9.680;2023-04-03T08:12:40;3.63;;;3.43;;
297;SDS011;133;49.626;9.680;2023-04-03T08:15:06;5.20;;;3.60;;
297;SDS011;133;49.626;9.680;2023-04-03T08:17:33;5.13;;;4.17;;
297;SDS011;133;49.626;9.680;2023-04-03T08:19:59;12.63;;;4.53;;
297;SDS011;133;49.626;9.680;2023-04-03T08:22:25;3.50;;;3.30;;
297;SDS011;133;49.626;9.680;2023-04-03T08:24:51;4.20;;;3.67;;
297;SDS011;133;49.626;9.680;2023-04-03T08:27:17;7.27;;;4.07;;
297;SDS011;133;49.626;9.680;2023-04-03T08:29:42;5.53;;;3.47;;
297;SDS011;133;49.626;9.680;2023-04-03T08:32:08;5.47;;;3.97;;
297;SDS011;133;49.626;9.680;2023-04-03T08:34:34;3.97;;;3.63;;
297;SDS011;133;49.626;9.680;2023-04-03T08:37:00;4.70;;;3.80;;
297;SDS011;133;49.626;9.680;2023-04-03T08:39:26;6.07;;;3.70;;
297;SDS011;133;49.626;9.680;2023-04-03T08:41:52;5.53;;;3.87;;
297;SDS011;133;49.626;9.680;2023-04-03T08:44:26;4.83;;;3.80;;
297;SDS011;133;49.626;9.680;2023-04-03T08:49:43;5.33;;;3.77;;
297;SDS011;133;49.626;9.680;2023-04-03T08:52:20;3.60;;;3.40;;
297;SDS011;133;49.626;9.680;2023-04-03T08:57:51;4.77;;;3.70;;
297;SDS011;133;49.626;9.680;2023-04-03T09:00:25;4.27;;;3.70;;
297;SDS011;133;49.626;9.680;2023-04-03T09:02:55;7.50;;;4.10;;
297;SDS011;133;49.626;9.680;2023-04-03T09:10:46;4.97;;;3.83;;
297;SDS011;133;49.626;9.680;2023-04-03T09:13:24;5.20;;;3.80;;
297;SDS011;133;49.626;9.680;2023-04-03T09:16:04;11.37;;;4.93;;
297;SDS011;133;49.626;9.680;2023-04-03T09:18:45;3.90;;;3.63;;
297;SDS011;133;49.626;9.680;2023-04-03T09:21:22;3.60;;;3.20;;
297;SDS011;133;49.626;9.680;2023-04-03T09:23:53;4.60;;;3.50;;
297;SDS011;133;49.626;9.680;2023-04-03T09:26:25;3.33;;;3.13;;
297;SDS011;133;49.626;9.680;2023-04-03T09:29:21;3.80;;;3.60;;
297;SDS011;133;49.626;9.680;2023-04-03T09:31:49;3.80;;;3.50;;
297;SDS011;133;49.626;9.680;2023-04-03T09:34:21;3.90;;;3.23;;
297;SDS011;133;49.626;9.680;2023-04-03T09:36:52;8.23;;;3.70;;
297;SDS011;133;49.626;9.680;2023-04-03T09:39:26;4.23;;;3.93;;
297;SDS011;133;49.626;9.680;2023-04-03T09:41:57;3.60;;;3.40;;
297;SDS011;133;49.626;9.680;2023-04-03T09:44:27;4.77;;;3.40;;
297;SDS011;133;49.626;9.680;2023-04-03T09:46:55;5.17;;;3.60;;
297;SDS011;133;49.626;9.680;2023-04-03T09:49:21;3.30;;;3.10;;
297;SDS011;133;49.626;9.680;2023-04-03T09:51:46;4.03;;;3.60;;
297;SDS011;133;49.626;9.680;2023-04-03T09:54:32;4.70;;;3.30;;
297;SDS011;133;49.626;9.680;2023-04-03T09:57:09;3.23;;;2.70;;
297;SDS011;133;49.626;9.680;2023-04-03T09:59:38;3.00;;;2.80;;
297;SDS011;133;49.626;9.680;2023-04-03T10:02:29;3.70;;;3.50;;
297;SDS011;133;49.626;9.680;2023-04-03T10:05:02;5.33;;;3.40;;
297;SDS011;133;49.626;9.680;2023-04-03T10:07:30;4.40;;;3.07;;
297;SDS011;133;49.626;9.680;2023-04-03T10:10:02;2.80;;;2.60;;
297;SDS011;133;49.626;9.680;2023-04-03T10:12:42;3.27;;;2.67;;
297;SDS011;133;49.626;9.680;2023-04-03T10:15:15;3.00;;;2.80;;
297;SDS011;133;49.626;9.680;2023-04-03T10:20:44;6.23;;;3.37;;
297;SDS011;133;49.626;9.680;2023-04-03T10:23:17;3.53;;;3.33;;
297;SDS011;133;49.626;9.680;2023-04-03T10:29:01;4.87;;;3.23;;
297;SDS011;133;49.626;9.680;2023-04-03T10:36:39;3.47;;;3.23;;
297;SDS011;133;49.626;9.680;2023-04-03T10:47:38;3.17;;;2.97;;
297;SDS011;133;49.626;9.680;2023-04-03T10:58:36;2.83;;;2.63;;
297;SDS011;133;49.626;9.680;2023-04-03T11:01:08;3.00;;;2.80;;
297;SDS011;133;49.626;9.680;2023-04-03T11:03:52;3.30;;;2.87;;
297;SDS011;133;49.626;9.680;2023-04-03T11:06:19;3.40;;;3.10;;
297;SDS011;133;49.626;9.680;2023-04-03T11:08:50;3.30;;;2.90;;
297;SDS011;133;49.626;9.680;2023-04-03T11:11:22;3.47;;;3.10;;
297;SDS011;133;49.626;9.680;2023-04-03T11:13:54;3.03;;;2.87;;
297;SDS011;133;49.626;9.680;2023-04-03T11:16:29;3.50;;;3.17;;
297;SDS011;133;49.626;9.680;2023-04-03T11:19:07;3.00;;;2.80;;
297;SDS011;133;49.626;9.680;2023-04-03T11:21:56;4.23;;;2.70;;
297;SDS011;133;49.626;9.680;2023-04-03T11:24:31;4.47;;;2.70;;
297;SDS011;133;49.626;9.680;2023-04-03T11:26:59;3.70;;;2.73;;
297;SDS011;133;49.626;9.680;2023-04-03T11:29:32;3.73;;;3.10;;
297;SDS011;133;49.626;9.680;2023-04-03T11:35:08;3.50;;;2.87;;
297;SDS011;133;49.626;9.680;2023-04-03T11:37:41;4.33;;;3.00;;
297;SDS011;133;49.626;9.680;2023-04-03T11:40:19;4.00;;;3.00;;
297;SDS011;133;49.626;9.680;2023-04-03T11:42:47;2.90;;;2.77;;
297;SDS011;133;49.626;9.680;2023-04-03T11:47:55;3.67;;;2.73;;
297;SDS011;133;49.626;9.680;2023-04-03T11:50:46;3.47;;;3.10;;
297;SDS011;133;49.626;9.680;2023-04-03T11:58:16;3.70;;;3.03;;
297;SDS011;133;49.626;9.680;2023-04-03T12:13:40;4.40;;;3.13;;
297;SDS011;133;49.626;9.680;2023-04-03T12:16:06;3.60;;;2.97;;
297;SDS011;133;49.626;9.680;2023-04-03T12:21:21;3.20;;;3.00;;
297;SDS011;133;49.626;9.680;2023-04-03T12:24:04;3.00;;;2.87;;
297;SDS011;133;49.626;9.680;2023-04-03T12:29:20;2.97;;;2.77;;
297;SDS011;133;49.626;9.680;2023-04-03T12:35:01;2.90;;;2.70;;
297;SDS011;133;49.626;9.680;2023-04-03T12:48:17;3.33;;;2.67;;
297;SDS011;133;49.626;9.680;2023-04-03T12:50:49;3.00;;;2.80;;
297;SDS011;133;49.626;9.680;2023-04-03T12:53:22;2.87;;;2.70;;
297;SDS011;133;49.626;9.680;2023-04-03T12:55:55;3.13;;;2.63;;
297;SDS011;133;49.626;9.680;2023-04-03T12:58:23;3.57;;;2.70;;
297;SDS011;133;49.626;9.680;2023-04-03T13:01:04;3.53;;;2.70;;
297;SDS011;133;49.626;9.680;2023-04-03T13:03:40;3.20;;;3.00;;
297;SDS011;133;49.626;9.680;2023-04-03T13:06:22;2.83;;;2.63;;
297;SDS011;133;49.626;9.680;2023-04-03T13:08:54;4.03;;;2.60;;
297;SDS011;133;49.626;9.680;2023-04-03T13:11:25;3.17;;;2.70;;
297;SDS011;133;49.626;9.680;2023-04-03T13:14:01;2.40;;;2.20;;
297;SDS011;133;49.626;9.680;2023-04-03T13:16:30;2.67;;;2.47;;
297;SDS011;133;49.626;9.680;2023-04-03T13:18:57;2.67;;;2.43;;
297;SDS011;133;49.626;9.680;2023-04-03T13:21:27;2.47;;;2.33;;
297;SDS011;133;49.626;9.680;2023-04-03T13:23:56;3.20;;;2.53;;
297;SDS011;133;49.626;9.680;2023-04-03T13:26:25;3.30;;;2.97;;
297;SDS011;133;49.626;9.680;2023-04-03T13:28:54;3.50;;;2.60;;
297;SDS011;133;49.626;9.680;2023-04-03T13:31:27;3.47;;;2.43;;
297;SDS011;133;49.626;9.680;2023-04-03T13:33:58;2.63;;;2.43;;
297;SDS011;133;49.626;9.680;2023-04-03T13:36:59;2.80;;;2.50;;
297;SDS011;133;49.626;9.680;2023-04-03T13:39:31;2.77;;;2.60;;
297;SDS011;133;49.626;9.680;2023-04-03T13:41:59;3.40;;;2.60;;
297;SDS011;133;49.626;9.680;2023-04-03T13:44:35;3.93;;;2.33;;
297;SDS011;133;49.626;9.680;2023-04-03T13:49:40;3.40;;;2.77;;
297;SDS011;133;49.626;9.680;2023-04-03T13:57:50;3.00;;;2.63;;
297;SDS011;133;49.626;9.680;2023-04-03T14:00:19;2.50;;;2.30;;
297;SDS011;133;49.626;9.680;2023-04-03T14:02:57;2.60;;;2.40;;
297;SDS011;133;49.626;9.680;2023-04-03T14:05:23;2.67;;;2.47;;
297;SDS011;133;49.626;9.680;2023-04-03T14:07:50;3.00;;;2.63;;
297;SDS011;133;49.626;9.680;2023-04-03T14:10:16;2.40;;;2.20;;
297;SDS011;133;49.626;9.680;2023-04-03T14:12:42;2.60;;;2.40;;
297;SDS011;133;49.626;9.680;2023-04-03T14:15:24;3.30;;;2.60;;
297;SDS011;133;49.626;9.680;2023-04-03T14:17:53;2.47;;;2.30;;
297;SDS011;133;49.626;9.680;2023-04-03T14:20:22;3.23;;;2.50;;
297;SDS011;133;49.626;9.680;2023-04-03T14:22:50;3.30;;;2.23;;
297;SDS011;133;49.626;9.680;2023-04-03T14:25:16;4.40;;;2.37;;
297;SDS011;133;49.626;9.680;2023-04-03T14:27:44;2.93;;;2.40;;
297;SDS011;133;49.626;9.680;2023-04-03T14:30:14;4.00;;;2.70;;
297;SDS011;133;49.626;9.680;2023-04-03T14:32:45;3.00;;;2.30;;
297;SDS011;133;49.626;9.680;2023-04-03T14:35:12;3.83;;;2.53;;
297;SDS011;133;49.626;9.680;2023-04-03T14:37:38;2.80;;;2.60;;
297;SDS011;133;49.626;9.680;2023-04-03T14:40:04;2.60;;;2.40;;
297;SDS011;133;49.626;9.680;2023-04-03T14:42:33;2.90;;;2.40;;
297;SDS011;133;49.626;9.680;2023-04-03T14:45:02;2.43;;;2.23;;
297;SDS011;133;49.626;9.680;2023-04-03T14:47:30;3.30;;;2.40;;
297;SDS011;133;49.626;9.680;2023-04-03T14:49:56;2.67;;;2.40;;
297;SDS011;133;49.626;9.680;2023-04-03T14:52:25;5.53;;;2.77;;
297;SDS011;133;49.626;9.680;2023-04-03T14:54:53;3.00;;;2.73;;
297;SDS011;133;49.626;9.680;2023-04-03T14:57:19;3.00;;;2.40;;
297;SDS011;133;49.626;9.680;2023-04-03T14:59:49;2.60;;;2.27;;
297;SDS011;133;49.626;9.680;2023-04-03T15:02:22;3.27;;;2.40;;
297;SDS011;133;49.626;9.680;2023-04-03T15:04:54;2.93;;;2.37;;
297;SDS011;133;49.626;9.680;2023-04-03T15:07:21;3.23;;;2.47;;
297;SDS011;133;49.626;9.680;2023-04-03T15:09:48;3.30;;;2.40;;
297;SDS011;133;49.626;9.680;2023-04-03T15:12:14;2.40;;;2.20;;
297;SDS011;133;49.626;9.680;2023-04-03T15:14:40;3.00;;;2.20;;
297;SDS011;133;49.626;9.680;2023-04-03T15:17:05;4.00;;;2.20;;
297;SDS011;133;49.626;9.680;2023-04-03T15:19:35;2.60;;;2.40;;
297;SDS011;133;49.626;9.680;2023-04-03T15:22:02;3.33;;;2.80;;
297;SDS011;133;49.626;9.680;2023-04-03T15:24:28;4.97;;;2.43;;
297;SDS011;133;49.626;9.680;2023-04-03T15:26:54;2.47;;;2.30;;
297;SDS011;133;49.626;9.680;2023-04-03T15:29:20;6.63;;;3.20;;
297;SDS011;133;49.626;9.680;2023-04-03T15:31:45;3.20;;;2.50;;
297;SDS011;133;49.626;9.680;2023-04-03T15:34:11;4.30;;;2.40;;
297;SDS011;133;49.626;9.680;2023-04-03T15:36:36;3.03;;;2.20;;
297;SDS011;133;49.626;9.680;2023-04-03T15:39:02;3.07;;;2.30;;
297;SDS011;133;49.626;9.680;2023-04-03T15:41:28;2.80;;;2.30;;
297;SDS011;133;49.626;9.680;2023-04-03T15:43:54;3.73;;;2.30;;
297;SDS011;133;49.626;9.680;2023-04-03T15:46:20;2.40;;;2.20;;
297;SDS011;133;49.626;9.680;2023-04-03T15:48:45;2.20;;;2.00;;
297;SDS011;133;49.626;9.680;2023-04-03T15:51:11;2.53;;;2.33;;
297;SDS011;133;49.626;9.680;2023-04-03T15:53:37;2.70;;;2.30;;
297;SDS011;133;49.626;9.680;2023-04-03T15:56:03;2.90;;;2.40;;
297;SDS011;133;49.626;9.680;2023-04-03T15:58:29;3.00;;;2.10;;
297;SDS011;133;49.626;9.680;2023-04-03T16:00:55;2.30;;;2.10;;
297;SDS011;133;49.626;9.680;2023-04-03T16:03:21;2.93;;;2.50;;
297;SDS011;133;49.626;9.680;2023-04-03T16:05:49;6.10;;;2.80;;
297;SDS011;133;49.626;9.680;2023-04-03T16:08:15;2.90;;;2.20;;
297;SDS011;133;49.626;9.680;2023-04-03T16:10:42;11.63;;;2.90;;
297;SDS011;133;49.626;9.680;2023-04-03T16:13:13;4.43;;;2.30;;
297;SDS011;133;49.626;9.680;2023-04-03T16:15:40;3.00;;;2.40;;
297;SDS011;133;49.626;9.680;2023-04-03T16:18:05;2.90;;;2.43;;
297;SDS011;133;49.626;9.680;2023-04-03T16:20:33;2.50;;;2.20;;
297;SDS011;133;49.626;9.680;2023-04-03T16:23:00;2.37;;;2.13;;
297;SDS011;133;49.626;9.680;2023-04-03T16:25:26;2.20;;;2.00;;
297;SDS011;133;49.626;9.680;2023-04-03T16:27:52;2.53;;;2.40;;
297;SDS011;133;49.626;9.680;2023-04-03T16:30:18;3.10;;;2.27;;
297;SDS011;133;49.626;9.680;2023-04-03T16:32:44;4.07;;;2.30;;
297;SDS011;133;49.626;9.680;2023-04-03T16:35:10;3.20;;;2.10;;
297;SDS011;133;49.626;9.680;2023-04-03T16:37:36;3.27;;;2.30;;
297;SDS011;133;49.626;9.680;2023-04-03T16:40:02;2.47;;;2.20;;
297;SDS011;133;49.626;9.680;2023-04-03T16:42:30;2.93;;;2.20;;
297;SDS011;133;49.626;9.680;2023-04-03T16:44:56;2.70;;;2.03;;
297;SDS011;133;49.626;9.680;2023-04-03T16:47:21;3.07;;;2.10;;
297;SDS011;133;49.626;9.680;2023-04-03T16:49:47;3.20;;;2.17;;
297;SDS011;133;49.626;9.680;2023-04-03T16:52:13;2.37;;;2.10;;
297;SDS011;133;49.626;9.680;2023-04-03T16:54:39;4.30;;;2.07;;
297;SDS011;133;49.626;9.680;2023-04-03T16:57:05;2.43;;;2.23;;
297;SDS011;133;49.626;9.680;2023-04-03T16:59:30;2.30;;;2.10;;
297;SDS011;133;49.626;9.680;2023-04-03T17:01:56;3.37;;;2.37;;
297;SDS011;133;49.626;9.680;2023-04-03T17:04:22;3.83;;;2.10;;
297;SDS011;133;49.626;9.680;2023-04-03T17:06:47;4.67;;;2.27;;
297;SDS011;133;49.626;9.680;2023-04-03T17:09:20;2.90;;;2.30;;
297;SDS011;133;49.626;9.680;2023-04-03T17:11:46;5.53;;;2.50;;
297;SDS011;133;49.626;9.680;2023-04-03T17:14:11;2.20;;;2.00;;
297;SDS011;133;49.626;9.680;2023-04-03T17:16:37;9.20;;;2.20;;
297;SDS011;133;49.626;9.680;2023-04-03T17:19:03;4.50;;;2.10;;
297;SDS011;133;49.626;9.680;2023-04-03T17:21:30;3.80;;;2.03;;
297;SDS011;133;49.626;9.680;2023-04-03T17:23:58;2.13;;;2.00;;